Terminal Aerodrome Forecast
Issued by NWS Sioux Falls, SD

Home | Current Version | Previous Version | Text Only | Print | Product List | Glossary On
Versions: 1 2 3 4 5 6 7 8 9 10 11 12 13 14 15 16 17 18 19 20 21 22
164
FTUS43 KFSD 201355 AAA
TAFFSD
TAF AMD
KFSD 201355Z 2014/2112 16013KT 6SM BR OVC012
      TEMPO 2014/2015 4SM -SHRA OVC009
     FM201600 18008KT P6SM OVC015
     FM201900 28011KT P6SM BKN080
     FM202100 29012KT P6SM SCT090
     FM210700 23005KT P6SM SKC=

USA.gov is the U.S. government's official web portal to all federal, state and local government web resources and services.